Luzerne, IA

8:30 AM CDT on October 22, 2014 (GMT -0500)
South West Btown | Change Station
CLOSE
Current Station
Personal Weather Station
Location: Blairstown, IA
Elevation: 866 ft
Nearby Weather Stations

Elev 866 ft 41.91 °N, 92.09 °W | Updated 20 seconds ago

Clear
Clear
39.0 °F
Feels Like 39 °F
N
2.0
Wind Variable Wind from ESE
Gusts 3.0 mph

Today
High -- | Low -- °F
--% Chance of Precip.
Yesterday
High -- | Low -- °F
Precip. -- in
7:29 AM 6:16 PM
Waning Crescent, 2% visible
Pressure 30.32 in
Visibility 5.0 miles
Clouds Clear
Windchill 39 °F
Dew Point 37 °F
Humidity 91%
Rainfall 0.00 in
Snow Depth Not available.
UV 0 out of 12
Pollen 1.30 out of 12
Air Quality Not available.
Flu Activity Sporadic
METAR KCID 221252Z 11006KT 5SM BR CLR 01/01 A3030 RMK AO2 SLP265 T00110011

More Conditions Fewer Conditions

Pressure 30.32 in
Visibility 5.0 miles
Clouds Clear
Windchill 39 °F
Dew Point 37 °F
Humidity 91%
Rainfall 0.00 in
Snow Depth Not available.
UV 0 out of 12
Pollen 1.30 out of 12
Air Quality Not available.
Flu Activity Sporadic
METAR KCID 221252Z 11006KT 5SM BR CLR 01/01 A3030 RMK AO2 SLP265 T00110011

More Conditions Fewer Conditions

10-Day Weather Forecast

Almanac

Astronomy

Oct. 22, 2014 Rise Set
Actual Time 7:29 AM CDT 6:16 PM CDT
Civil Twilight 7:00 AM CDT 6:44 PM CDT
Nautical Twilight 6:28 AM CDT 7:17 PM CDT
Astronomical Twilight 5:55 AM CDT 7:49 PM CDT
Moon 6:09 AM CDT 5:44 PM CDT
Length of Visible Light 11h 44m
Length of Day
10h 47m
Tomorrow will be 2m 38s shorter.
Waning Crescent, 2% of the Moon is Illuminated
Today
Waning Crescent
Oct 23
New
Oct 30
First Quarter
Nov 6
Full
Nov 14
Last Quarter

Today's Extremes

State Highs State Lows

Community

WunderPhotos

Upload Photos

1,763,918 photos uploaded!

Nearby

Snow Depth

Station Depth Elevation
No new snow has been reported.

Earthquake Activity

City Distance Mag. Time & Date
No recent earthquake activity has been reported nearby.
Minimum magnitude displayed is 2.5.

Coastal Water Temperatures

Place Temperature
No Stations Reporting

Nearby Weather Stations